Time;durP1;ratioP1;P1;durP2;ratioP2;P2;SDS_P1;SDS_P2;PMS_P1;PMS_P2;Temp;Humidity;BMP_temperature;BMP_pressure;BME280_temperature;BME280_humidity;BME280_pressure;Samples;Min_cycle;Max_cycle;Signal;HPM_P1;HPM_P2
2022/07/04 00:02:06;;;;;;;;;;;;;;;22.93;60.44;99723.03;4453891;32;23733;-83
2022/07/04 00:04:31;;;;;;;;;;;;;;;22.75;60.43;99724.56;4454157;32;28023;-85
2022/07/04 00:06:57;;;;;;;;;;;;;;;22.83;60.44;99722.97;4440435;32;28698;-85
2022/07/04 00:09:22;;;;;;;;;;;;;;;22.85;60.44;99725.50;4441163;32;20296;-85
2022/07/04 00:11:47;;;;;;;;;;;;;;;22.66;60.43;99731.44;4441406;32;20003;-85
2022/07/04 00:14:12;;;;;;;;;;;;;;;22.46;60.42;99733.09;4441823;32;26425;-84
2022/07/04 00:16:37;;;;;;;;;;;;;;;22.51;60.42;99730.06;4441304;32;19988;-84
2022/07/04 00:19:03;;;;;;;;;;;;;;;22.53;60.42;99733.44;4441441;32;20329;-84
2022/07/04 00:21:28;;;;;;;;;;;;;;;22.62;60.42;99733.53;4440878;32;22064;-84
2022/07/04 00:23:53;;;;;;;;;;;;;;;22.60;60.42;99726.66;4453498;32;26151;-84
2022/07/04 00:26:18;;;;;;;;;;;;;;;22.61;60.42;99723.88;4454368;32;20023;-83
2022/07/04 00:28:44;;;;;;;;;;;;;;;22.75;60.43;99732.53;4441308;32;19997;-84
2022/07/04 00:31:09;;;;;;;;;;;;;;;22.61;60.43;99731.00;4441458;32;20011;-84
2022/07/04 00:33:34;;;;;;;;;;;;;;;22.51;60.42;99738.03;4454921;32;20020;-84
2022/07/04 00:35:59;;;;;;;;;;;;;;;22.60;60.42;99724.84;4455260;32;20258;-84
2022/07/04 00:38:25;;;;;;;;;;;;;;;22.57;60.42;99724.25;4441168;32;26243;-84
2022/07/04 00:40:50;;;;;;;;;;;;;;;22.30;60.40;99724.69;4455025;32;20015;-85
2022/07/04 00:43:25;;;;;;;;;;;;;;;22.29;60.41;99729.16;4456688;32;19977;-85
2022/07/04 00:45:50;;;;;;;;;;;;;;;22.30;60.40;99725.53;4443831;32;20355;-84
2022/07/04 00:48:15;;;;;;;;;;;;;;;22.23;60.40;99723.50;4457061;32;20040;-84
2022/07/04 00:50:41;;;;;;;;;;;;;;;22.29;60.41;99723.03;4456348;32;22527;-84
2022/07/04 00:53:07;;;;;;;;;;;;;;;22.17;60.41;99721.34;4456865;32;19968;-85
2022/07/04 00:55:32;;;;;;;;;;;;;;;22.26;60.41;99728.56;4457082;32;20489;-85
2022/07/04 00:57:57;;;;;;;;;;;;;;;22.43;60.42;99725.38;4456646;32;23815;-85
2022/07/04 01:00:22;;;;;;;;;;;;;;;22.20;60.41;99727.25;4456604;32;22439;-85
2022/07/04 01:02:47;;;;;;;;;;;;;;;22.10;60.40;99723.66;4443933;32;20300;-84
2022/07/04 01:05:13;;;;;;;;;;;;;;;22.19;60.40;99730.00;4456904;32;19984;-83
2022/07/04 01:07:38;;;;;;;;;;;;;;;22.12;60.40;99727.03;4457055;32;19992;-85
2022/07/04 01:10:04;;;;;;;;;;;;;;;22.20;60.40;99729.88;4443876;32;21215;-85
2022/07/04 01:12:29;;;;;;;;;;;;;;;22.15;60.40;99728.56;4443950;32;19991;-84
2022/07/04 01:14:54;;;;;;;;;;;;;;;22.31;60.40;99721.94;4443732;32;19980;-85
2022/07/04 01:17:20;;;;;;;;;;;;;;;21.93;60.39;99729.41;4443932;32;20314;-83
2022/07/04 01:19:45;;;;;;;;;;;;;;;21.99;60.40;99732.41;4456899;32;20029;-85
2022/07/04 01:22:10;;;;;;;;;;;;;;;22.00;60.39;99727.94;4443373;32;29658;-84
2022/07/04 01:24:35;;;;;;;;;;;;;;;21.96;60.40;99732.66;4443396;32;25235;-85
2022/07/04 01:27:01;;;;;;;;;;;;;;;21.83;60.38;99731.12;4456102;32;23172;-84
2022/07/04 01:29:26;;;;;;;;;;;;;;;21.82;60.38;99734.72;4457318;32;20356;-84
2022/07/04 01:31:53;;;;;;;;;;;;;;;21.78;60.38;99728.00;4443166;32;20036;-84
2022/07/04 01:34:18;;;;;;;;;;;;;;;21.76;60.38;99726.28;4443483;32;20029;-83
2022/07/04 01:36:43;;;;;;;;;;;;;;;21.85;60.38;99731.84;4443261;32;19989;-84
2022/07/04 01:39:09;;;;;;;;;;;;;;;21.91;60.39;99723.41;4456030;32;20076;-85
2022/07/04 01:41:34;;;;;;;;;;;;;;;21.93;60.38;99732.06;4456388;32;20314;-84
2022/07/04 01:44:00;;;;;;;;;;;;;;;21.89;60.39;99731.47;4456421;32;20018;-84
2022/07/04 01:46:25;;;;;;;;;;;;;;;21.53;60.36;99719.31;4456252;32;20414;-85
2022/07/04 01:48:50;;;;;;;;;;;;;;;21.67;60.37;99727.00;4456357;32;20288;-85
2022/07/04 01:51:15;;;;;;;;;;;;;;;21.69;60.37;99730.38;4457405;32;28237;-84
2022/07/04 01:53:41;;;;;;;;;;;;;;;21.71;60.38;99730.25;4442526;32;28067;-84
2022/07/04 01:56:06;;;;;;;;;;;;;;;21.98;60.39;99743.13;4443554;32;20039;-84
2022/07/04 01:58:31;;;;;;;;;;;;;;;22.00;60.39;99739.44;4456701;32;19985;-85
2022/07/04 02:03:40;;;;;;;;;;;;;;;21.52;60.37;99736.13;4459033;32;20029;-86
2022/07/04 02:06:06;;;;;;;;;;;;;;;21.72;60.38;99735.44;4443391;32;27135;-85
2022/07/04 02:09:14;;;;;;;;;;;;;;;21.57;60.37;99741.09;4456290;32;26198;-85
2022/07/04 02:11:16;;;;;;;;;;;;;;;21.64;60.37;99739.66;4459692;32;19991;-85
2022/07/04 02:13:41;;;;;;;;;;;;;;;21.56;60.37;99745.56;4444081;32;19981;-85
2022/07/04 02:16:06;;;;;;;;;;;;;;;21.50;60.37;99738.06;4456990;32;20025;-85
2022/07/04 02:18:32;;;;;;;;;;;;;;;21.31;60.35;99745.75;4470179;32;25800;-84
2022/07/04 02:20:57;;;;;;;;;;;;;;;21.42;60.36;99743.13;4443968;32;20219;-86
2022/07/04 02:23:22;;;;;;;;;;;;;;;21.43;60.36;99740.34;4444573;32;19988;-87
2022/07/04 02:25:47;;;;;;;;;;;;;;;21.38;60.37;99734.56;4444196;32;22021;-86
2022/07/04 02:28:13;;;;;;;;;;;;;;;21.53;60.36;99735.22;4444729;32;20009;-86
2022/07/04 02:30:38;;;;;;;;;;;;;;;21.53;60.36;99737.84;4457524;32;19981;-87
2022/07/04 02:33:03;;;;;;;;;;;;;;;21.44;60.36;99736.75;4461878;32;20014;-87
2022/07/04 02:35:28;;;;;;;;;;;;;;;21.53;60.37;99736.97;4450536;32;20848;-86
2022/07/04 02:37:54;;;;;;;;;;;;;;;21.53;60.36;99748.44;4450942;32;20034;-87
2022/07/04 02:40:19;;;;;;;;;;;;;;;21.56;60.37;99742.91;4447657;32;20028;-87
2022/07/04 02:42:44;;;;;;;;;;;;;;;21.49;60.37;99738.19;4457555;32;19969;-87
2022/07/04 02:45:09;;;;;;;;;;;;;;;21.75;60.37;99744.94;4444103;32;23968;-87
2022/07/04 02:47:35;;;;;;;;;;;;;;;21.74;60.38;99733.50;4444944;32;20036;-85
2022/07/04 02:50:02;;;;;;;;;;;;;;;21.51;60.37;99736.25;4444353;32;20018;-85
2022/07/04 02:52:27;;;;;;;;;;;;;;;21.34;60.35;99742.87;4456494;32;19985;-86
2022/07/04 02:54:52;;;;;;;;;;;;;;;21.36;60.35;99754.19;4456579;32;19997;-85
2022/07/04 02:57:18;;;;;;;;;;;;;;;21.43;60.36;99750.94;4456307;32;19984;-86
2022/07/04 02:59:43;;;;;;;;;;;;;;;21.37;60.36;99747.94;4456477;32;20320;-86
2022/07/04 03:02:08;;;;;;;;;;;;;;;21.49;60.37;99746.12;4445094;32;19981;-87
2022/07/04 03:04:33;;;;;;;;;;;;;;;21.45;60.36;99745.53;4443395;32;19981;-85
2022/07/04 03:06:58;;;;;;;;;;;;;;;21.38;60.35;99749.63;4457081;32;20024;-84
2022/07/04 03:09:27;;;;;;;;;;;;;;;21.45;60.36;99753.47;4455895;32;19987;-85
2022/07/04 03:11:52;;;;;;;;;;;;;;;21.66;60.37;99741.22;4456277;32;19994;-85
2022/07/04 03:14:17;;;;;;;;;;;;;;;21.81;60.38;99744.50;4470004;32;25406;-86
2022/07/04 03:16:42;;;;;;;;;;;;;;;21.69;60.37;99748.09;4469577;32;24797;-85
2022/07/04 03:19:08;;;;;;;;;;;;;;;21.76;60.37;99744.81;4470098;32;20021;-84
2022/07/04 03:21:33;;;;;;;;;;;;;;;21.82;60.38;99751.47;4455789;32;20003;-85
2022/07/04 03:23:58;;;;;;;;;;;;;;;21.82;60.38;99751.47;4455210;32;25129;-84
2022/07/04 03:26:27;;;;;;;;;;;;;;;21.86;60.39;99757.37;4456193;32;19980;-85
2022/07/04 03:28:52;;;;;;;;;;;;;;;22.00;60.39;99754.47;4443001;32;20337;-84
2022/07/04 03:31:17;;;;;;;;;;;;;;;22.11;60.39;99746.53;4455898;32;20037;-84
2022/07/04 03:33:43;;;;;;;;;;;;;;;22.13;60.39;99746.41;4455714;32;19985;-84
2022/07/04 03:36:08;;;;;;;;;;;;;;;21.99;60.38;99744.81;4455087;32;28349;-85
2022/07/04 03:38:33;;;;;;;;;;;;;;;22.03;60.39;99743.63;4442994;32;19977;-85
2022/07/04 03:40:58;;;;;;;;;;;;;;;22.23;60.40;99744.72;4455722;32;20586;-85
2022/07/04 03:43:24;;;;;;;;;;;;;;;22.29;60.41;99745.06;4455727;32;20022;-85
2022/07/04 03:45:49;;;;;;;;;;;;;;;22.27;60.41;99749.66;4455530;32;20069;-84
2022/07/04 03:48:14;;;;;;;;;;;;;;;22.31;60.40;99751.09;4457351;32;19991;-87
2022/07/04 03:50:40;;;;;;;;;;;;;;;22.35;60.41;99749.03;4444003;32;19988;-87
2022/07/04 03:53:05;;;;;;;;;;;;;;;22.43;60.41;99741.28;4456827;32;19989;-87
2022/07/04 03:55:31;;;;;;;;;;;;;;;22.55;60.42;99739.47;4456203;32;20007;-86
2022/07/04 03:57:56;;;;;;;;;;;;;;;22.35;60.41;99743.72;4442572;32;20006;-85
2022/07/04 04:00:21;;;;;;;;;;;;;;;22.49;60.42;99747.94;4454758;32;24929;-85
2022/07/04 04:02:46;;;;;;;;;;;;;;;22.62;60.42;99737.97;4442777;32;20004;-86
2022/07/04 04:05:27;;;;;;;;;;;;;;;22.79;60.42;99740.09;4442291;32;27607;-86
2022/07/04 04:07:59;;;;;;;;;;;;;;;22.82;60.43;99747.00;4456514;32;19977;-86
2022/07/04 04:10:25;;;;;;;;;;;;;;;22.88;60.44;99746.47;4469954;32;19988;-86
2022/07/04 04:12:50;;;;;;;;;;;;;;;23.05;60.45;99742.44;4455517;32;20001;-85
2022/07/04 04:15:15;;;;;;;;;;;;;;;23.19;60.46;99750.09;4442811;32;19997;-84
2022/07/04 04:17:41;;;;;;;;;;;;;;;23.44;60.46;99747.03;4456973;32;20227;-84
2022/07/04 04:20:08;;;;;;;;;;;;;;;23.71;60.47;99741.19;4457073;32;19973;-83
2022/07/04 04:22:33;;;;;;;;;;;;;;;23.97;60.49;99741.56;4457235;32;19989;-84
2022/07/04 04:24:58;;;;;;;;;;;;;;;24.01;60.49;99742.13;4456799;32;19976;-83
2022/07/04 04:27:24;;;;;;;;;;;;;;;24.02;60.49;99742.00;4443514;32;29607;-84
2022/07/04 04:29:49;;;;;;;;;;;;;;;24.13;60.50;99747.25;4457103;32;27634;-85
2022/07/04 04:32:14;;;;;;;;;;;;;;;24.33;60.51;99748.13;4457252;32;21743;-86
2022/07/04 04:34:39;;;;;;;;;;;;;;;24.49;60.51;99739.63;4457710;32;20015;-85
2022/07/04 04:37:05;;;;;;;;;;;;;;;24.70;60.53;99743.00;4444929;32;20011;-85
2022/07/04 04:39:30;;;;;;;;;;;;;;;24.82;60.53;99741.03;4444381;32;22118;-85
2022/07/04 04:41:55;;;;;;;;;;;;;;;24.95;60.54;99736.28;4444683;32;20039;-86
2022/07/04 04:44:20;;;;;;;;;;;;;;;24.92;60.54;99735.72;4457790;32;19988;-85
2022/07/04 04:46:45;;;;;;;;;;;;;;;25.19;60.55;99730.53;4444091;32;20379;-85
2022/07/04 04:49:11;;;;;;;;;;;;;;;25.23;60.56;99723.09;4456647;32;19988;-85
2022/07/04 04:51:36;;;;;;;;;;;;;;;25.29;60.55;99726.03;4443730;32;20371;-85
2022/07/04 04:54:01;;;;;;;;;;;;;;;25.38;60.55;99727.00;4443634;32;19989;-86
2022/07/04 04:56:27;;;;;;;;;;;;;;;25.53;60.56;99720.22;4456603;32;19984;-85
2022/07/04 04:58:52;;;;;;;;;;;;;;;25.74;60.58;99724.53;4456684;32;19991;-85
2022/07/04 05:01:17;;;;;;;;;;;;;;;25.82;60.58;99722.81;4443010;32;21930;-85
2022/07/04 05:03:42;;;;;;;;;;;;;;;25.97;60.59;99718.66;4444949;32;20043;-86
2022/07/04 05:06:08;;;;;;;;;;;;;;;25.85;60.58;99719.87;4455978;32;23573;-86
2022/07/04 05:08:33;;;;;;;;;;;;;;;26.09;60.59;99721.16;4456758;32;20438;-85
2022/07/04 05:10:58;;;;;;;;;;;;;;;26.24;60.60;99722.31;4442934;32;25666;-85
2022/07/04 05:13:23;;;;;;;;;;;;;;;26.34;60.61;99722.25;4456151;32;20007;-86
2022/07/04 05:15:48;;;;;;;;;;;;;;;26.38;60.61;99723.66;4470036;32;21934;-85
2022/07/04 05:18:15;;;;;;;;;;;;;;;26.55;60.62;99723.69;4456278;32;19977;-85
2022/07/04 05:20:40;;;;;;;;;;;;;;;26.75;60.63;99726.22;4444248;32;19977;-84
2022/07/04 05:23:05;;;;;;;;;;;;;;;26.97;60.65;99714.19;4443940;32;20041;-84
2022/07/04 05:25:31;;;;;;;;;;;;;;;27.04;60.65;99723.31;4456350;32;20025;-84
2022/07/04 05:27:56;;;;;;;;;;;;;;;27.24;60.66;99722.12;4455906;32;19985;-86
2022/07/04 05:30:21;;;;;;;;;;;;;;;27.20;60.66;99728.75;4456788;32;20361;-85
2022/07/04 05:32:47;;;;;;;;;;;;;;;27.40;60.67;99724.91;4456876;32;20298;-87
2022/07/04 05:35:12;;;;;;;;;;;;;;;27.43;60.67;99726.41;4443351;32;21748;-87
2022/07/04 05:37:37;;;;;;;;;;;;;;;27.45;60.67;99730.62;4444337;32;20018;-87
2022/07/04 05:40:03;;;;;;;;;;;;;;;27.40;60.66;99727.56;4456730;32;19989;-85
2022/07/04 05:42:28;;;;;;;;;;;;;;;27.75;60.69;99732.00;4456816;32;20011;-88
2022/07/04 05:44:54;;;;;;;;;;;;;;;27.91;60.69;99730.38;4444606;32;19995;-87
2022/07/04 05:47:19;;;;;;;;;;;;;;;27.85;60.69;99736.38;4444290;32;20741;-87
2022/07/04 05:49:44;;;;;;;;;;;;;;;27.99;60.70;99733.94;4444103;32;20000;-86
2022/07/04 05:52:09;;;;;;;;;;;;;;;28.08;60.70;99737.47;4456623;32;29088;-87
2022/07/04 05:54:35;;;;;;;;;;;;;;;28.13;60.71;99737.84;4444424;32;19980;-86
2022/07/04 05:57:00;;;;;;;;;;;;;;;28.37;60.72;99737.94;4445382;32;19989;-86
2022/07/04 05:59:25;;;;;;;;;;;;;;;28.26;60.71;99735.56;4456996;32;29102;-88
2022/07/04 06:01:50;;;;;;;;;;;;;;;28.33;60.71;99736.59;4443788;32;19993;-87
2022/07/04 06:04:16;;;;;;;;;;;;;;;28.38;60.72;99738.78;4443501;32;19997;-86
2022/07/04 06:06:41;;;;;;;;;;;;;;;28.53;60.72;99730.94;4456868;32;20014;-86
2022/07/04 06:09:06;;;;;;;;;;;;;;;28.71;60.73;99731.66;4456499;32;22175;-86
2022/07/04 06:11:32;;;;;;;;;;;;;;;28.80;60.74;99727.97;4471066;32;20309;-87
2022/07/04 06:13:57;;;;;;;;;;;;;;;28.98;60.74;99733.22;4443542;32;19972;-86
2022/07/04 06:16:22;;;;;;;;;;;;;;;29.05;60.75;99723.47;4455809;32;20597;-87
2022/07/04 06:18:47;;;;;;;;;;;;;;;29.14;60.75;99727.00;4443909;32;19992;-87
2022/07/04 06:21:13;;;;;;;;;;;;;;;29.31;60.77;99724.13;4442656;32;26533;-86
2022/07/04 06:23:38;;;;;;;;;;;;;;;29.42;60.77;99720.25;4455352;32;22707;-87
2022/07/04 06:26:03;;;;;;;;;;;;;;;29.24;60.75;99731.19;4442581;32;24178;-86
2022/07/04 06:28:29;;;;;;;;;;;;;;;29.46;60.78;99721.63;4455851;32;25464;-86
2022/07/04 06:30:54;;;;;;;;;;;;;;;29.54;60.77;99721.59;4456849;32;20261;-86
2022/07/04 06:33:19;;;;;;;;;;;;;;;29.80;60.79;99723.19;4455600;32;21931;-86
2022/07/04 06:35:44;;;;;;;;;;;;;;;29.86;60.79;99719.84;4470272;32;19969;-86
2022/07/04 06:38:10;;;;;;;;;;;;;;;29.98;60.80;99722.97;4443678;32;20325;-86
2022/07/04 06:40:35;;;;;;;;;;;;;;;30.20;60.82;99733.78;4456797;32;19988;-86
2022/07/04 06:43:00;;;;;;;;;;;;;;;30.29;60.82;99731.09;4455860;32;19984;-85
2022/07/04 06:45:26;;;;;;;;;;;;;;;30.51;60.83;99722.19;4442897;32;20014;-86
2022/07/04 06:47:51;;;;;;;;;;;;;;;30.61;60.83;99725.53;4442056;32;29421;-86
2022/07/04 06:50:17;;;;;;;;;;;;;;;30.89;60.84;99717.75;4455908;32;20324;-86
2022/07/04 06:52:42;;;;;;;;;;;;;;;30.97;60.85;99714.16;4456184;32;19972;-86
2022/07/04 06:55:08;;;;;;;;;;;;;;;31.23;60.86;99719.16;4443149;32;26241;-88
2022/07/04 06:57:33;;;;;;;;;;;;;;;31.43;60.87;99720.31;4443796;32;20254;-87
2022/07/04 06:59:59;;;;;;;;;;;;;;;31.57;60.88;99718.66;4444853;32;20164;-88
2022/07/04 07:02:24;;;;;;;;;;;;;;;31.54;60.87;99714.47;4443654;32;19984;-88
2022/07/04 07:04:49;;;;;;;;;;;;;;;31.75;60.89;99719.16;4443830;32;20294;-89
2022/07/04 07:07:14;;;;;;;;;;;;;;;31.92;60.89;99719.78;4443802;32;19981;-88
2022/07/04 07:09:40;;;;;;;;;;;;;;;31.93;60.89;99718.75;4443276;32;20247;-88
2022/07/04 07:12:05;;;;;;;;;;;;;;;31.83;60.89;99729.81;4443586;32;20000;-89
2022/07/04 07:14:30;;;;;;;;;;;;;;;31.78;60.88;99726.87;4443607;32;20019;-89
2022/07/04 07:16:56;;;;;;;;;;;;;;;31.92;60.89;99726.00;4443608;32;20037;-88
2022/07/04 07:19:21;;;;;;;;;;;;;;;32.10;60.90;99728.31;4445195;32;19997;-88
2022/07/04 07:21:46;;;;;;;;;;;;;;;32.17;60.90;99728.38;4443298;32;19994;-87
2022/07/04 07:24:11;;;;;;;;;;;;;;;32.31;60.92;99724.84;4442439;32;20321;-87
2022/07/04 07:26:36;;;;;;;;;;;;;;;32.26;60.91;99727.28;4469624;32;24201;-86
2022/07/04 07:29:02;;;;;;;;;;;;;;;32.47;60.93;99715.72;4469908;32;20387;-86
2022/07/04 07:31:27;;;;;;;;;;;;;;;32.61;60.93;99722.88;4470094;32;19992;-86
2022/07/04 07:33:52;;;;;;;;;;;;;;;32.69;60.94;99722.78;4455516;32;19980;-86
2022/07/04 07:36:17;;;;;;;;;;;;;;;32.70;60.94;99719.06;4469015;32;27578;-86
2022/07/04 07:38:43;;;;;;;;;;;;;;;32.79;60.94;99720.63;4442689;32;20008;-85
2022/07/04 07:41:09;;;;;;;;;;;;;;;32.86;60.94;99723.38;4455624;32;20435;-86
2022/07/04 07:43:34;;;;;;;;;;;;;;;32.90;60.94;99727.37;4442613;32;19991;-86
2022/07/04 07:45:59;;;;;;;;;;;;;;;33.03;60.95;99721.25;4442440;32;25485;-86
2022/07/04 07:48:24;;;;;;;;;;;;;;;33.21;60.96;99717.03;4456222;32;19997;-86
2022/07/04 07:50:50;;;;;;;;;;;;;;;33.35;60.97;99709.91;4455313;32;20029;-86
2022/07/04 07:53:16;;;;;;;;;;;;;;;33.15;60.95;99719.69;4456806;32;19988;-86
2022/07/04 07:55:41;;;;;;;;;;;;;;;33.25;60.96;99714.78;4456195;32;20038;-86
2022/07/04 07:58:07;;;;;;;;;;;;;;;33.27;60.97;99716.25;4469443;32;20000;-86
2022/07/04 08:00:32;;;;;;;;;;;;;;;33.65;60.99;99706.97;4455135;32;20297;-86
2022/07/04 08:06:01;;;;;;;;;;;;;;;33.76;60.99;99704.53;4435935;32;20001;-86
2022/07/04 08:08:26;;;;;;;;;;;;;;;33.60;60.98;99699.50;4423115;32;20357;-86
2022/07/04 08:10:52;;;;;;;;;;;;;;;33.69;60.98;99692.88;4437232;32;21509;-85
2022/07/04 08:13:17;;;;;;;;;;;;;;;34.06;61.01;99696.19;4455135;32;20073;-86
2022/07/04 08:15:42;;;;;;;;;;;;;;;33.92;61.00;99694.47;4456616;32;26792;-86
2022/07/04 08:18:08;;;;;;;;;;;;;;;33.95;60.99;99699.47;4454534;32;24779;-86
2022/07/04 08:20:33;;;;;;;;;;;;;;;34.00;61.00;99694.28;4454443;32;26154;-86
2022/07/04 08:22:58;;;;;;;;;;;;;;;34.13;61.02;99686.25;4454694;32;20017;-85
2022/07/04 08:25:23;;;;;;;;;;;;;;;34.26;61.01;99688.97;4454870;32;20314;-86
2022/07/04 08:27:49;;;;;;;;;;;;;;;34.43;61.03;99693.00;4455066;32;20037;-86
2022/07/04 08:30:14;;;;;;;;;;;;;;;34.57;61.03;99685.75;4468783;32;24642;-86
2022/07/04 08:32:39;;;;;;;;;;;;;;;34.46;61.02;99689.06;4441165;32;27025;-86
2022/07/04 08:35:05;;;;;;;;;;;;;;;34.62;61.04;99688.69;4469828;32;19997;-87
2022/07/04 08:37:30;;;;;;;;;;;;;;;34.69;61.04;99684.09;4454584;32;20454;-86
2022/07/04 08:39:55;;;;;;;;;;;;;;;34.81;61.04;99697.03;4454552;32;20034;-86
2022/07/04 08:42:21;;;;;;;;;;;;;;;34.61;61.04;99687.00;4454459;32;19976;-86
2022/07/04 08:44:50;;;;;;;;;;;;;;;34.56;61.03;99694.09;4454583;32;20281;-86
2022/07/04 08:47:25;;;;;;;;;;;;;;;34.54;61.03;99688.84;4454569;32;20042;-86
2022/07/04 08:49:55;;;;;;;;;;;;;;;34.41;61.02;99695.09;4454427;32;19996;-86
2022/07/04 08:52:36;;;;;;;;;;;;;;;34.53;61.03;99687.19;4454628;32;19986;-86
2022/07/04 09:00:30;;;;;;;;;;;;;;;35.04;61.05;99690.19;4456467;32;19984;-86
2022/07/04 09:02:55;;;;;;;;;;;;;;;34.95;61.05;99693.28;4455633;32;19996;-86
2022/07/04 09:05:20;;;;;;;;;;;;;;;34.93;61.05;99689.97;4456569;32;20006;-86
2022/07/04 09:07:46;;;;;;;;;;;;;;;34.89;61.04;99686.84;4456018;32;24854;-86
2022/07/04 09:10:11;;;;;;;;;;;;;;;35.07;61.05;99686.22;4456419;32;20056;-86
2022/07/04 09:12:36;;;;;;;;;;;;;;;35.05;61.05;99693.72;4456286;32;20020;-86
2022/07/04 09:15:01;;;;;;;;;;;;;;;34.95;61.06;99690.59;4456585;32;28272;-86
2022/07/04 09:17:27;;;;;;;;;;;;;;;35.06;61.06;99689.97;4456484;32;20024;-86
2022/07/04 09:20:11;;;;;;;;;;;;;;;35.29;61.06;99684.12;4456514;32;19985;-85
2022/07/04 09:22:36;;;;;;;;;;;;;;;35.52;61.08;99689.94;4443544;32;19988;-85
2022/07/04 09:25:02;;;;;;;;;;;;;;;35.47;61.08;99678.88;4443582;32;19981;-86
2022/07/04 09:27:34;;;;;;;;;;;;;;;35.66;61.09;99678.00;4443295;32;20011;-86
2022/07/04 09:29:59;;;;;;;;;;;;;;;35.67;61.09;99682.38;4443624;32;19972;-86
2022/07/04 09:32:35;;;;;;;;;;;;;;;35.75;61.09;99678.63;4456224;32;20316;-86
2022/07/04 09:35:00;;;;;;;;;;;;;;;36.02;61.10;99676.66;4456393;32;19993;-86
2022/07/04 09:37:41;;;;;;;;;;;;;;;36.05;61.10;99683.53;4442850;32;25131;-86
2022/07/04 09:40:08;;;;;;;;;;;;;;;36.03;61.10;99681.03;4456544;32;19977;-86
2022/07/04 09:42:37;;;;;;;;;;;;;;;35.76;61.09;99669.44;4443595;32;19973;-85
2022/07/04 09:45:06;;;;;;;;;;;;;;;35.83;61.10;99683.81;4456800;32;19992;-85
2022/07/04 09:47:31;;;;;;;;;;;;;;;35.90;61.10;99673.78;4444370;32;20405;-86
2022/07/04 09:50:03;;;;;;;;;;;;;;;35.81;61.10;99683.16;4457865;32;20010;-86
2022/07/04 09:52:29;;;;;;;;;;;;;;;35.78;61.09;99671.94;4470599;32;20014;-86
2022/07/04 09:55:07;;;;;;;;;;;;;;;35.91;61.10;99672.72;4443537;32;20334;-87
2022/07/04 09:57:32;;;;;;;;;;;;;;;35.87;61.09;99673.37;4456978;32;20014;-85
2022/07/04 10:00:36;;;;;;;;;;;;;;;35.71;61.09;99665.69;4456095;32;20012;-86
2022/07/04 10:03:20;;;;;;;;;;;;;;;36.00;61.10;99670.63;4406544;32;20320;-86
2022/07/04 10:05:46;;;;;;;;;;;;;;;36.37;61.13;99660.00;4393461;32;19998;-87
2022/07/04 10:08:11;;;;;;;;;;;;;;;36.54;61.13;99650.31;4430567;32;19997;-86
2022/07/04 10:10:39;;;;;;;;;;;;;;;36.49;61.13;99653.69;4444287;32;22105;-86
2022/07/04 10:13:09;;;;;;;;;;;;;;;36.51;61.12;99661.59;4456016;32;19973;-86
2022/07/04 10:15:36;;;;;;;;;;;;;;;36.59;61.13;99651.28;4455547;32;19977;-86
2022/07/04 10:18:02;;;;;;;;;;;;;;;36.79;61.14;99648.47;4470424;32;20038;-86
2022/07/04 10:20:27;;;;;;;;;;;;;;;36.65;61.13;99640.59;4456108;32;19978;-86
2022/07/04 10:22:52;;;;;;;;;;;;;;;36.77;61.13;99642.41;4442981;32;19980;-85
2022/07/04 10:25:18;;;;;;;;;;;;;;;36.82;61.14;99633.63;4455634;32;20037;-86
2022/07/04 10:27:44;;;;;;;;;;;;;;;36.76;61.13;99629.88;4455974;32;19992;-85
2022/07/04 10:30:11;;;;;;;;;;;;;;;36.42;61.12;99624.94;4443050;32;19969;-86
2022/07/04 10:32:36;;;;;;;;;;;;;;;36.49;61.13;99631.16;4457185;32;19992;-86
2022/07/04 10:35:01;;;;;;;;;;;;;;;36.71;61.14;99621.59;4455459;32;19993;-86
2022/07/04 10:37:46;;;;;;;;;;;;;;;36.65;61.13;99619.75;4443514;32;20001;-86
2022/07/04 10:40:14;;;;;;;;;;;;;;;36.91;61.15;99607.84;4456105;32;19984;-86
2022/07/04 10:42:39;;;;;;;;;;;;;;;36.91;61.14;99620.59;4443321;32;20336;-87
2022/07/04 10:45:04;;;;;;;;;;;;;;;36.82;61.15;99612.75;4456006;32;19977;-87
2022/07/04 10:47:30;;;;;;;;;;;;;;;36.79;61.14;99621.34;4455981;32;20310;-86
2022/07/04 10:49:56;;;;;;;;;;;;;;;36.67;61.13;99623.06;4443210;32;19969;-86
2022/07/04 10:52:21;;;;;;;;;;;;;;;36.63;61.14;99615.59;4443546;32;20088;-85
2022/07/04 10:54:46;;;;;;;;;;;;;;;36.72;61.14;99608.84;4455232;32;28930;-86
2022/07/04 10:57:11;;;;;;;;;;;;;;;36.74;61.14;99604.87;4443193;32;20023;-86
2022/07/04 10:59:38;;;;;;;;;;;;;;;36.62;61.14;99603.91;4456642;32;20318;-87
2022/07/04 11:02:03;;;;;;;;;;;;;;;36.63;61.14;99602.88;4456294;32;19976;-86
2022/07/04 11:04:47;;;;;;;;;;;;;;;36.96;61.15;99599.06;4456455;32;20000;-86
2022/07/04 11:07:13;;;;;;;;;;;;;;;37.07;61.16;99601.03;4456198;32;19988;-87
2022/07/04 11:09:39;;;;;;;;;;;;;;;37.00;61.15;99594.84;4443077;32;20025;-87
2022/07/04 11:12:06;;;;;;;;;;;;;;;37.12;61.16;99591.16;4443959;32;20042;-86
2022/07/04 11:14:37;;;;;;;;;;;;;;;37.06;61.16;99578.50;4445408;32;19985;-85
2022/07/04 11:17:03;;;;;;;;;;;;;;;37.18;61.17;99573.97;4458688;32;20007;-86
2022/07/04 11:19:28;;;;;;;;;;;;;;;37.05;61.16;99586.84;4459356;32;20013;-85
2022/07/04 11:21:57;;;;;;;;;;;;;;;36.91;61.14;99588.84;4445656;32;20005;-86
2022/07/04 11:24:22;;;;;;;;;;;;;;;37.30;61.17;99579.50;4457276;32;19994;-88
2022/07/04 11:26:48;;;;;;;;;;;;;;;37.50;61.19;99581.97;4456936;32;20023;-86
2022/07/04 11:29:14;;;;;;;;;;;;;;;37.43;61.18;99571.22;4442885;32;20043;-87
2022/07/04 11:31:40;;;;;;;;;;;;;;;37.58;61.18;99559.09;4442892;32;20381;-87
2022/07/04 11:34:05;;;;;;;;;;;;;;;37.52;61.18;99546.44;4442814;32;20048;-87
2022/07/04 11:36:30;;;;;;;;;;;;;;;37.56;61.18;99555.78;4469958;32;20016;-86
2022/07/04 11:38:59;;;;;;;;;;;;;;;37.38;61.17;99557.47;4455161;32;26000;-87
2022/07/04 11:47:03;;;;;;;;;;;;;;;37.22;61.17;99544.50;4458069;32;20362;-86
2022/07/04 11:49:28;;;;;;;;;;;;;;;37.54;61.18;99528.03;4455364;32;19985;-87
2022/07/04 11:51:55;;;;;;;;;;;;;;;37.40;61.17;99536.37;4454626;32;27917;-87
2022/07/04 11:54:20;;;;;;;;;;;;;;;37.30;61.16;99530.63;4455339;32;19985;-87
2022/07/04 11:56:46;;;;;;;;;;;;;;;37.38;61.18;99534.91;4442316;32;20015;-86
2022/07/04 11:59:14;;;;;;;;;;;;;;;37.10;61.16;99538.16;4455130;32;19977;-87
2022/07/04 12:01:43;;;;;;;;;;;;;;;37.08;61.16;99534.84;4455338;32;20325;-87
2022/07/04 12:04:12;;;;;;;;;;;;;;;37.29;61.17;99528.16;4455255;32;20027;-87
2022/07/04 12:06:38;;;;;;;;;;;;;;;37.30;61.17;99527.09;4455781;32;19988;-85
2022/07/04 12:09:03;;;;;;;;;;;;;;;37.60;61.18;99518.97;4455143;32;20000;-86
2022/07/04 12:11:47;;;;;;;;;;;;;;;37.60;61.18;99527.09;4454949;32;19977;-86
2022/07/04 12:14:13;;;;;;;;;;;;;;;37.36;61.17;99516.16;4469350;32;20000;-86
2022/07/04 12:16:38;;;;;;;;;;;;;;;37.35;61.18;99517.19;4454912;32;19981;-86
2022/07/04 12:19:10;;;;;;;;;;;;;;;37.22;61.17;99528.22;4454712;32;19993;-86
2022/07/04 12:21:35;;;;;;;;;;;;;;;37.19;61.17;99525.97;4441824;32;19980;-86
2022/07/04 12:24:02;;;;;;;;;;;;;;;37.55;61.18;99526.97;4454648;32;20613;-86
2022/07/04 12:26:28;;;;;;;;;;;;;;;37.66;61.18;99526.22;4454820;32;19992;-86
2022/07/04 12:28:53;;;;;;;;;;;;;;;37.92;61.20;99528.56;4455935;32;19968;-86
2022/07/04 12:31:18;;;;;;;;;;;;;;;37.84;61.20;99523.44;4441754;32;20257;-86
2022/07/04 12:33:53;;;;;;;;;;;;;;;37.92;61.20;99523.13;4454291;32;23007;-86
2022/07/04 12:36:18;;;;;;;;;;;;;;;38.06;61.20;99519.13;4441913;32;20007;-86
2022/07/04 12:38:44;;;;;;;;;;;;;;;37.80;61.19;99514.09;4443214;32;22297;-86
2022/07/04 12:41:13;;;;;;;;;;;;;;;37.85;61.20;99513.41;4417952;32;806821;-87
2022/07/04 12:43:41;;;;;;;;;;;;;;;37.67;61.18;99525.97;4456512;32;19984;-86
2022/07/04 12:46:27;;;;;;;;;;;;;;;37.54;61.18;99525.31;4456665;32;20012;-86
2022/07/04 12:48:52;;;;;;;;;;;;;;;37.43;61.18;99516.91;4471159;32;20032;-86
2022/07/04 12:51:21;;;;;;;;;;;;;;;37.33;61.17;99519.31;4458369;32;20027;-86
2022/07/04 12:53:47;;;;;;;;;;;;;;;37.23;61.17;99523.59;4458751;32;19988;-86
2022/07/04 12:56:31;;;;;;;;;;;;;;;37.37;61.18;99536.81;4446490;32;20014;-86
2022/07/04 12:58:57;;;;;;;;;;;;;;;37.33;61.17;99523.91;4449229;32;19953;-86
2022/07/04 13:01:22;;;;;;;;;;;;;;;37.49;61.18;99515.97;4463496;32;19984;-86